Time;durP1;ratioP1;P1;durP2;ratioP2;P2;SDS_P1;SDS_P2;PMS_P1;PMS_P2;Temp;Humidity;BMP_temperature;BMP_pressure;BME280_temperature;BME280_humidity;BME280_pressure;Samples;Min_cycle;Max_cycle;Signal;HPM_P1;HPM_P2
2021/12/08 00:01:21;;;;;;;11.30;10.60;;;3.50;99.90;;;;;;5046884;28;20199;-75
2021/12/08 00:03:48;;;;;;;11.53;10.83;;;3.50;99.90;;;;;;5053215;28;20473;-76
2021/12/08 00:06:15;;;;;;;11.50;10.60;;;3.60;99.90;;;;;;5054759;28;20479;-76
2021/12/08 00:08:47;;;;;;;10.43;9.73;;;3.50;99.90;;;;;;5053113;28;20485;-76
2021/12/08 00:13:59;;;;;;;10.50;9.80;;;3.50;99.90;;;;;;5054602;28;20191;-76
2021/12/08 00:16:27;;;;;;;10.53;9.73;;;3.50;99.90;;;;;;5054096;28;20436;-76
2021/12/08 00:18:58;;;;;;;10.00;9.40;;;3.50;99.90;;;;;;5054606;28;20462;-76
2021/12/08 00:21:27;;;;;;;10.67;9.97;;;3.40;99.90;;;;;;5054294;28;20847;-76
2021/12/08 00:23:54;;;;;;;10.63;10.00;;;3.30;99.90;;;;;;5054369;28;20481;-76
2021/12/08 00:26:20;;;;;;;10.47;9.73;;;3.20;99.90;;;;;;5052698;28;20499;-75
2021/12/08 00:28:47;;;;;;;10.53;9.83;;;3.20;99.90;;;;;;5054080;28;21012;-76
2021/12/08 00:31:14;;;;;;;11.80;11.00;;;3.10;99.90;;;;;;5054174;28;20510;-76
2021/12/08 00:33:42;;;;;;;11.90;11.10;;;3.00;99.90;;;;;;5052904;28;20800;-76
2021/12/08 00:36:14;;;;;;;12.00;11.10;;;2.90;99.90;;;;;;5052691;28;20449;-76
2021/12/08 00:38:41;;;;;;;11.87;10.87;;;2.80;99.90;;;;;;5052357;28;20483;-76
2021/12/08 00:41:12;;;;;;;11.83;11.00;;;2.80;99.90;;;;;;5052556;28;20516;-76
2021/12/08 00:43:40;;;;;;;11.43;10.73;;;2.70;99.90;;;;;;5052587;28;20261;-77
2021/12/08 00:46:08;;;;;;;11.77;10.97;;;2.70;99.90;;;;;;5053641;28;20491;-75
2021/12/08 00:48:35;;;;;;;11.83;11.03;;;2.60;99.90;;;;;;5052191;28;20548;-76
2021/12/08 00:51:03;;;;;;;12.50;11.60;;;2.60;99.90;;;;;;5052537;28;20446;-76
2021/12/08 00:53:30;;;;;;;12.10;11.30;;;2.50;99.90;;;;;;5046090;28;20849;-76
2021/12/08 00:55:57;;;;;;;11.90;11.00;;;2.60;99.90;;;;;;5053722;28;20437;-75
2021/12/08 00:58:25;;;;;;;12.00;11.20;;;2.60;99.90;;;;;;5052107;28;20503;-76
2021/12/08 01:00:53;;;;;;;12.20;11.40;;;2.60;99.90;;;;;;5053591;28;20541;-76
2021/12/08 01:03:21;;;;;;;11.93;11.20;;;2.60;99.90;;;;;;5053338;28;20487;-76
2021/12/08 01:05:50;;;;;;;12.13;11.33;;;2.60;99.90;;;;;;5052854;28;20460;-76
2021/12/08 01:08:19;;;;;;;11.70;11.00;;;2.60;99.90;;;;;;5051652;28;20482;-76
2021/12/08 01:10:48;;;;;;;12.07;11.33;;;2.60;99.90;;;;;;5052197;28;20532;-75
2021/12/08 01:13:17;;;;;;;11.83;11.07;;;2.60;99.90;;;;;;5052036;28;20470;-76
2021/12/08 01:15:47;;;;;;;12.00;11.00;;;2.60;99.90;;;;;;5053450;28;20501;-76
2021/12/08 01:18:14;;;;;;;11.93;11.23;;;2.60;99.90;;;;;;5052830;28;21026;-75
2021/12/08 01:20:43;;;;;;;11.80;11.00;;;2.60;99.90;;;;;;5052069;28;20496;-76
2021/12/08 01:23:09;;;;;;;11.83;11.13;;;2.70;99.90;;;;;;5052877;28;20476;-76
2021/12/08 01:25:38;;;;;;;11.90;11.20;;;2.60;99.90;;;;;;5053202;28;20441;-76
2021/12/08 01:28:05;;;;;;;12.20;11.40;;;2.70;99.90;;;;;;5052682;28;20556;-75
2021/12/08 01:30:32;;;;;;;12.17;11.37;;;2.70;99.90;;;;;;5053714;28;20941;-76
2021/12/08 01:32:59;;;;;;;11.70;11.00;;;2.80;99.90;;;;;;5051798;28;20893;-76
2021/12/08 01:35:26;;;;;;;12.13;11.33;;;2.80;99.90;;;;;;5052876;28;20434;-76
2021/12/08 01:37:53;;;;;;;12.20;11.40;;;2.80;99.90;;;;;;5052477;28;20465;-76
2021/12/08 01:40:21;;;;;;;11.97;11.27;;;2.80;99.90;;;;;;5052790;28;20974;-77
2021/12/08 01:42:53;;;;;;;12.27;11.47;;;2.90;99.90;;;;;;5052686;28;20537;-76
2021/12/08 01:48:09;;;;;;;12.00;11.23;;;3.00;99.90;;;;;;5047923;28;20829;-76
2021/12/08 01:50:37;;;;;;;11.97;11.13;;;3.00;99.90;;;;;;5051347;28;20553;-76
2021/12/08 01:53:06;;;;;;;12.23;11.47;;;3.00;99.90;;;;;;5051258;28;20454;-76
2021/12/08 01:55:33;;;;;;;11.83;11.13;;;3.10;99.90;;;;;;5051324;28;20450;-76
2021/12/08 01:58:02;;;;;;;11.60;10.93;;;3.10;99.90;;;;;;5056476;28;20469;-75
2021/12/08 02:00:32;;;;;;;11.93;11.23;;;3.10;99.90;;;;;;5048520;28;20874;-76
2021/12/08 02:02:59;;;;;;;11.73;11.00;;;3.20;99.90;;;;;;5052783;28;20569;-76
2021/12/08 02:05:27;;;;;;;11.47;10.87;;;3.20;99.90;;;;;;5051069;28;20445;-76
2021/12/08 02:07:54;;;;;;;12.00;11.30;;;3.20;99.90;;;;;;5050870;28;20477;-76
2021/12/08 02:10:22;;;;;;;12.10;11.40;;;3.20;99.90;;;;;;5052388;28;20464;-76
2021/12/08 02:12:49;;;;;;;12.30;11.60;;;3.20;99.90;;;;;;5050932;28;20446;-76
2021/12/08 02:15:18;;;;;;;12.00;11.30;;;3.30;99.90;;;;;;5052022;28;20491;-76
2021/12/08 02:17:46;;;;;;;12.13;11.43;;;3.30;99.90;;;;;;5051907;28;20881;-76
2021/12/08 02:20:14;;;;;;;12.63;11.83;;;3.20;99.90;;;;;;5051013;28;20226;-76
2021/12/08 02:22:43;;;;;;;12.03;11.30;;;3.20;99.90;;;;;;5052031;28;20556;-76
2021/12/08 02:25:12;;;;;;;12.50;11.80;;;3.10;99.90;;;;;;5050852;28;20471;-76
2021/12/08 02:27:39;;;;;;;12.43;11.57;;;3.10;99.90;;;;;;5051563;28;21031;-76
2021/12/08 02:30:14;;;;;;;12.57;11.70;;;3.00;99.90;;;;;;5052295;28;20436;-75
2021/12/08 02:46:46;;;;;;;13.37;12.47;;;2.80;99.90;;;;;;5042489;28;20524;-75
2021/12/08 02:49:14;;;;;;;14.00;12.97;;;2.80;99.90;;;;;;5050529;28;20557;-76
2021/12/08 02:51:41;;;;;;;14.17;13.07;;;2.70;99.90;;;;;;5052034;28;20922;-75
2021/12/08 02:54:09;;;;;;;14.13;12.90;;;2.70;99.90;;;;;;5051644;28;20440;-75
2021/12/08 02:56:36;;;;;;;14.00;12.90;;;2.70;99.90;;;;;;5051376;28;20564;-76
2021/12/08 02:59:04;;;;;;;14.80;13.80;;;2.70;99.90;;;;;;5051368;28;20464;-76
2021/12/08 03:01:31;;;;;;;14.90;13.60;;;2.60;99.90;;;;;;5051688;28;20480;-76
2021/12/08 03:03:58;;;;;;;14.50;13.50;;;2.60;99.90;;;;;;5051595;28;20473;-76
2021/12/08 03:06:25;;;;;;;14.60;13.60;;;2.60;99.90;;;;;;5049993;28;20454;-75
2021/12/08 03:08:52;;;;;;;14.83;13.80;;;2.60;99.90;;;;;;5051740;28;20491;-76
2021/12/08 03:11:20;;;;;;;14.47;13.27;;;2.60;99.90;;;;;;5051170;28;20525;-76
2021/12/08 03:14:00;;;;;;;14.43;13.43;;;2.60;99.90;;;;;;5050635;28;21016;-76
2021/12/08 03:16:27;;;;;;;15.13;14.03;;;2.60;99.90;;;;;;5051305;28;20460;-76
2021/12/08 03:18:55;;;;;;;15.13;14.03;;;2.70;99.90;;;;;;5049947;28;20470;-76
2021/12/08 03:21:28;;;;;;;16.00;14.77;;;2.60;99.90;;;;;;5050092;28;20990;-76
2021/12/08 03:24:07;;;;;;;14.63;13.63;;;2.60;99.90;;;;;;5050121;28;20821;-76
2021/12/08 03:26:43;;;;;;;14.57;13.50;;;2.60;99.90;;;;;;5050810;28;20437;-75
2021/12/08 03:29:20;;;;;;;16.57;15.30;;;2.60;99.90;;;;;;5053786;28;20465;-75
2021/12/08 03:31:50;;;;;;;15.23;14.10;;;2.60;99.90;;;;;;5054261;28;20552;-76
2021/12/08 03:34:19;;;;;;;16.50;15.20;;;2.60;99.90;;;;;;5055243;28;20441;-76
2021/12/08 03:36:47;;;;;;;15.80;14.80;;;2.60;99.90;;;;;;5053948;28;20461;-76
2021/12/08 03:39:14;;;;;;;14.93;13.90;;;2.60;99.90;;;;;;5055015;28;20857;-76
2021/12/08 03:41:42;;;;;;;15.97;14.63;;;2.70;99.90;;;;;;5064438;28;20491;-77
2021/12/08 03:44:09;;;;;;;14.87;13.97;;;2.60;99.90;;;;;;5055662;28;20476;-77
2021/12/08 03:46:40;;;;;;;15.27;14.27;;;2.60;99.90;;;;;;5059179;28;20457;-78
2021/12/08 03:49:10;;;;;;;15.17;14.17;;;2.60;99.90;;;;;;5059024;28;20472;-78
2021/12/08 03:51:38;;;;;;;15.83;14.73;;;2.60;99.90;;;;;;5057234;28;20449;-79
2021/12/08 03:54:06;;;;;;;16.30;15.10;;;2.70;99.90;;;;;;5059545;28;20532;-78
2021/12/08 03:56:33;;;;;;;16.20;15.00;;;2.60;99.90;;;;;;5056066;28;20977;-79
2021/12/08 03:59:02;;;;;;;16.67;15.27;;;2.60;99.90;;;;;;5061498;28;20456;-79
2021/12/08 04:01:29;;;;;;;15.77;14.67;;;2.60;99.90;;;;;;5066728;28;20445;-79
2021/12/08 04:04:01;;;;;;;16.53;15.20;;;2.60;99.90;;;;;;5060543;28;20467;-79
2021/12/08 04:06:32;;;;;;;17.10;15.60;;;2.60;99.90;;;;;;5056777;28;20452;-79
2021/12/08 04:09:02;;;;;;;16.90;15.70;;;2.60;99.90;;;;;;5045295;28;20493;-77
2021/12/08 04:11:29;;;;;;;16.67;15.30;;;2.60;99.90;;;;;;5046784;28;20445;-76
2021/12/08 04:13:59;;;;;;;16.17;14.97;;;2.60;99.90;;;;;;5053384;28;20544;-77
2021/12/08 04:16:32;;;;;;;16.40;15.20;;;2.70;99.90;;;;;;5051869;28;20448;-77
2021/12/08 04:18:59;;;;;;;15.57;14.57;;;2.70;99.90;;;;;;5054637;28;20510;-77
2021/12/08 04:21:27;;;;;;;16.17;15.07;;;2.80;99.90;;;;;;5054296;28;20437;-77
2021/12/08 04:23:53;;;;;;;16.10;14.90;;;2.80;99.90;;;;;;5052831;28;20893;-76
2021/12/08 04:26:24;;;;;;;17.30;15.90;;;2.80;99.90;;;;;;5054297;28;20492;-76
2021/12/08 04:28:52;;;;;;;17.43;16.23;;;2.80;99.90;;;;;;5053046;28;20461;-77
2021/12/08 04:31:22;;;;;;;16.30;15.17;;;2.70;99.90;;;;;;5054210;28;20440;-77
2021/12/08 04:33:55;;;;;;;16.83;15.60;;;2.70;99.90;;;;;;5053703;28;20428;-76
2021/12/08 04:36:26;;;;;;;16.13;14.93;;;2.60;99.90;;;;;;5052803;28;20505;-77
2021/12/08 04:38:57;;;;;;;17.30;16.00;;;2.60;99.90;;;;;;5053647;28;21005;-77
2021/12/08 04:41:34;;;;;;;17.57;16.27;;;2.60;99.90;;;;;;5053645;28;20531;-77
2021/12/08 04:44:10;;;;;;;16.57;15.37;;;2.60;99.90;;;;;;5052842;28;20468;-77
2021/12/08 04:46:58;;;;;;;17.50;16.23;;;2.60;99.90;;;;;;5048433;28;20683;-77
2021/12/08 04:49:53;;;;;;;16.60;15.40;;;2.60;99.90;;;;;;5046111;28;20496;-77
2021/12/08 04:52:29;;;;;;;16.30;15.13;;;2.60;99.90;;;;;;5053934;28;20440;-77
2021/12/08 05:01:10;;;;;;;18.07;16.70;;;2.60;99.90;;;;;;4989843;28;20858;-77
2021/12/08 05:04:03;;;;;;;18.60;17.20;;;2.60;99.90;;;;;;5034958;28;20483;-77
2021/12/08 05:06:44;;;;;;;18.20;16.90;;;2.60;99.90;;;;;;5045542;28;20495;-77
2021/12/08 05:09:16;;;;;;;18.93;17.47;;;2.60;99.90;;;;;;5053493;28;20980;-77
2021/12/08 05:11:46;;;;;;;18.03;16.77;;;2.70;99.90;;;;;;5052349;28;20471;-77
2021/12/08 05:14:17;;;;;;;17.73;16.53;;;2.70;99.90;;;;;;5053434;28;20434;-77
2021/12/08 05:16:47;;;;;;;17.67;16.47;;;2.70;99.90;;;;;;5051914;28;20440;-77
2021/12/08 05:19:19;;;;;;;18.07;16.57;;;2.70;99.90;;;;;;5054110;28;20516;-77
2021/12/08 05:21:53;;;;;;;17.00;15.80;;;2.70;99.90;;;;;;5052178;28;20199;-77
2021/12/08 05:24:23;;;;;;;19.33;17.80;;;2.80;99.90;;;;;;5052964;28;20522;-77
2021/12/08 05:26:54;;;;;;;17.57;16.17;;;2.80;99.90;;;;;;5053123;28;20425;-77
2021/12/08 05:29:25;;;;;;;18.03;16.83;;;2.80;99.90;;;;;;5051937;28;20531;-77
2021/12/08 05:31:52;;;;;;;18.13;16.83;;;2.80;99.90;;;;;;5053220;28;20484;-77
2021/12/08 05:34:20;;;;;;;17.30;15.90;;;2.80;99.90;;;;;;5053049;28;20491;-77
2021/12/08 05:36:48;;;;;;;18.00;16.63;;;2.80;99.90;;;;;;5052947;28;20484;-77
2021/12/08 05:39:20;;;;;;;17.80;16.40;;;2.80;99.90;;;;;;5052744;28;20546;-77
2021/12/08 05:41:49;;;;;;;18.33;16.77;;;2.80;99.90;;;;;;5053021;28;20513;-77
2021/12/08 05:44:16;;;;;;;18.37;16.87;;;2.80;99.90;;;;;;5051698;28;21109;-76
2021/12/08 05:46:46;;;;;;;18.90;17.27;;;2.80;99.90;;;;;;5051516;28;20438;-77
2021/12/08 05:49:18;;;;;;;18.67;17.13;;;2.80;99.90;;;;;;5051412;28;20466;-77
2021/12/08 05:51:49;;;;;;;18.40;17.03;;;2.80;99.90;;;;;;5052392;28;20488;-77
2021/12/08 05:54:20;;;;;;;17.83;16.50;;;2.80;99.90;;;;;;5051491;28;20453;-77
2021/12/08 05:56:48;;;;;;;18.97;17.50;;;2.70;99.90;;;;;;5052517;28;20430;-77
2021/12/08 05:59:16;;;;;;;17.90;16.60;;;2.70;99.90;;;;;;5051057;28;20465;-77
2021/12/08 06:01:46;;;;;;;18.27;17.07;;;2.70;99.90;;;;;;5052500;28;20513;-77
2021/12/08 06:04:13;;;;;;;17.57;16.17;;;2.70;99.90;;;;;;5052262;28;21282;-77
2021/12/08 06:06:41;;;;;;;16.93;15.73;;;2.60;99.90;;;;;;5050965;28;20446;-77
2021/12/08 06:09:11;;;;;;;16.13;15.03;;;2.60;99.90;;;;;;5050902;28;20481;-77
2021/12/08 06:11:38;;;;;;;17.03;15.83;;;2.70;99.90;;;;;;5051362;28;20445;-77
2021/12/08 06:14:07;;;;;;;18.27;16.90;;;2.70;99.90;;;;;;5050792;28;20478;-77
2021/12/08 06:16:37;;;;;;;18.17;16.90;;;2.70;99.90;;;;;;5050469;28;20982;-77
2021/12/08 06:19:05;;;;;;;17.90;16.60;;;2.80;99.90;;;;;;5050856;28;21000;-77
2021/12/08 06:21:32;;;;;;;18.13;16.80;;;2.70;99.90;;;;;;5050908;28;20747;-77
2021/12/08 06:24:00;;;;;;;19.20;17.70;;;2.70;99.90;;;;;;5052194;28;20476;-77
2021/12/08 06:26:30;;;;;;;18.30;16.90;;;2.70;99.90;;;;;;5051920;28;20476;-77
2021/12/08 06:28:59;;;;;;;18.67;17.37;;;2.70;99.90;;;;;;5051932;28;20454;-77
2021/12/08 06:31:27;;;;;;;18.70;17.20;;;2.70;99.90;;;;;;5051922;28;20948;-77
2021/12/08 06:33:55;;;;;;;18.70;17.23;;;2.80;99.90;;;;;;5051824;28;20438;-77
2021/12/08 06:36:25;;;;;;;18.63;17.23;;;2.80;99.90;;;;;;5051858;28;20792;-76
2021/12/08 06:38:53;;;;;;;21.53;19.83;;;2.90;99.90;;;;;;5052025;28;20530;-77
2021/12/08 06:41:24;;;;;;;20.00;18.20;;;2.90;99.90;;;;;;5050458;28;20446;-77
2021/12/08 06:43:55;;;;;;;20.37;18.67;;;2.90;99.90;;;;;;5050453;28;20211;-77
2021/12/08 06:46:23;;;;;;;19.37;17.73;;;3.00;99.90;;;;;;5051400;28;20503;-76
2021/12/08 06:48:54;;;;;;;19.13;17.60;;;3.00;99.90;;;;;;5051511;28;20453;-77
2021/12/08 06:51:25;;;;;;;18.90;17.50;;;3.10;99.90;;;;;;5051755;28;20486;-77
2021/12/08 06:53:55;;;;;;;18.20;16.80;;;3.20;99.90;;;;;;5051543;28;20449;-77
2021/12/08 06:56:25;;;;;;;19.33;17.83;;;3.20;99.90;;;;;;5053592;28;20448;-76
2021/12/08 06:58:57;;;;;;;17.93;16.53;;;3.30;99.90;;;;;;5051263;28;20466;-77
2021/12/08 07:01:38;;;;;;;17.83;16.57;;;3.40;99.90;;;;;;5050285;28;20433;-77
2021/12/08 07:04:24;;;;;;;15.87;14.67;;;3.50;99.90;;;;;;5049551;28;20461;-77
2021/12/08 07:07:00;;;;;;;15.10;14.10;;;3.60;99.90;;;;;;5045211;28;20899;-77
2021/12/08 07:09:31;;;;;;;8.80;8.00;;;3.70;99.90;;;;;;5051380;28;20996;-77
2021/12/08 07:12:01;;;;;;;6.93;6.30;;;3.80;99.90;;;;;;5051332;28;20446;-77
2021/12/08 07:14:33;;;;;;;7.87;7.27;;;3.90;99.90;;;;;;5049950;28;20875;-77
2021/12/08 07:17:05;;;;;;;5.40;4.90;;;3.90;99.90;;;;;;5050946;28;20437;-77
2021/12/08 07:19:43;;;;;;;5.77;5.27;;;4.00;99.90;;;;;;5059060;28;20219;-77
2021/12/08 07:22:12;;;;;;;12.67;11.87;;;4.00;99.90;;;;;;5050015;28;20207;-77
2021/12/08 07:24:43;;;;;;;14.07;13.07;;;4.00;99.90;;;;;;5051347;28;20264;-77
2021/12/08 07:27:13;;;;;;;13.50;12.60;;;4.10;99.90;;;;;;5051155;28;20260;-77
2021/12/08 07:29:43;;;;;;;6.07;5.37;;;4.10;99.90;;;;;;5051159;28;20218;-77
2021/12/08 07:32:13;;;;;;;5.50;5.00;;;4.10;99.90;;;;;;5050058;28;20264;-77
2021/12/08 07:34:40;;;;;;;6.30;5.80;;;4.20;99.90;;;;;;5049972;28;20195;-77
2021/12/08 07:37:14;;;;;;;6.00;5.47;;;4.20;99.90;;;;;;5051108;28;20613;-77
2021/12/08 07:39:45;;;;;;;7.53;6.93;;;4.20;99.90;;;;;;5051243;28;20214;-77
2021/12/08 07:42:18;;;;;;;5.77;5.27;;;4.20;99.90;;;;;;5051122;28;20248;-77
2021/12/08 07:44:50;;;;;;;8.03;7.43;;;4.20;99.90;;;;;;5051106;28;20250;-77
2021/12/08 07:47:20;;;;;;;7.57;7.07;;;4.20;99.90;;;;;;5049612;28;20200;-77
2021/12/08 07:49:52;;;;;;;4.77;4.37;;;4.20;99.90;;;;;;5051250;28;20213;-77
2021/12/08 07:52:22;;;;;;;4.80;4.40;;;4.30;99.90;;;;;;5049660;28;20246;-77
2021/12/08 07:54:49;;;;;;;5.77;5.27;;;4.20;99.90;;;;;;5052345;28;20660;-78
2021/12/08 07:57:20;;;;;;;4.77;4.37;;;4.30;99.90;;;;;;5050835;28;20608;-77
2021/12/08 07:59:52;;;;;;;4.80;4.40;;;4.30;99.90;;;;;;5049594;28;20729;-77
2021/12/08 08:02:19;;;;;;;6.20;5.70;;;4.30;99.90;;;;;;5050053;28;20430;-77
2021/12/08 08:04:49;;;;;;;4.87;4.47;;;4.30;99.90;;;;;;5049461;28;20680;-77
2021/12/08 08:07:17;;;;;;;6.13;5.63;;;4.40;99.90;;;;;;5049455;28;20264;-77
2021/12/08 08:09:47;;;;;;;5.30;4.90;;;4.40;99.90;;;;;;5050888;28;20227;-77
2021/12/08 08:12:18;;;;;;;6.30;5.90;;;4.40;99.90;;;;;;5050839;28;20736;-77
2021/12/08 08:14:53;;;;;;;9.67;9.00;;;4.40;99.90;;;;;;5051432;28;20660;-77
2021/12/08 08:17:27;;;;;;;9.70;9.00;;;4.40;99.90;;;;;;5054134;28;20195;-77
2021/12/08 08:19:55;;;;;;;9.77;9.17;;;4.40;99.90;;;;;;5054836;28;20607;-77
2021/12/08 08:22:25;;;;;;;4.80;4.50;;;4.40;99.90;;;;;;5054188;28;20670;-77
2021/12/08 08:24:54;;;;;;;4.20;3.73;;;4.50;99.90;;;;;;5053031;28;20204;-77
2021/12/08 08:27:22;;;;;;;6.27;5.77;;;4.50;99.90;;;;;;5052656;28;20646;-77
2021/12/08 08:29:51;;;;;;;4.77;4.43;;;4.50;99.90;;;;;;5052823;28;20660;-77
2021/12/08 08:32:25;;;;;;;8.90;8.30;;;4.50;99.90;;;;;;5054224;28;20199;-77
2021/12/08 08:34:55;;;;;;;11.27;10.57;;;4.50;99.90;;;;;;5054347;28;20721;-77
2021/12/08 08:37:23;;;;;;;3.90;3.60;;;4.50;99.90;;;;;;5053959;28;20668;-77
2021/12/08 08:39:53;;;;;;;4.20;3.80;;;4.50;99.90;;;;;;5053994;28;20321;-77
2021/12/08 08:42:26;;;;;;;3.87;3.57;;;4.50;99.90;;;;;;5053765;28;20211;-77
2021/12/08 08:44:58;;;;;;;4.63;4.17;;;4.50;99.90;;;;;;5052625;28;20231;-77
2021/12/08 08:47:28;;;;;;;3.50;3.30;;;4.50;99.90;;;;;;5053374;28;20192;-77
2021/12/08 08:49:56;;;;;;;4.00;3.70;;;4.50;99.90;;;;;;5049492;28;20253;-77
2021/12/08 08:52:27;;;;;;;5.40;4.90;;;4.40;99.90;;;;;;5053802;28;20203;-77
2021/12/08 08:54:58;;;;;;;8.00;7.20;;;4.50;99.90;;;;;;5055723;28;20191;-77
2021/12/08 08:57:28;;;;;;;4.97;4.53;;;4.40;99.90;;;;;;5053369;28;20191;-77
2021/12/08 09:00:04;;;;;;;13.97;13.10;;;4.40;99.90;;;;;;5052679;28;20199;-77
2021/12/08 09:02:38;;;;;;;13.57;12.77;;;4.50;99.90;;;;;;5044712;28;20576;-77
2021/12/08 09:05:10;;;;;;;13.53;12.73;;;4.50;99.90;;;;;;5049394;28;20252;-77
2021/12/08 09:07:41;;;;;;;13.47;12.67;;;4.50;99.90;;;;;;5053331;28;20248;-77
2021/12/08 09:10:12;;;;;;;13.80;12.90;;;4.60;99.90;;;;;;5054732;28;20245;-77
2021/12/08 09:12:44;;;;;;;13.77;12.87;;;4.60;99.90;;;;;;5053533;28;20237;-77
2021/12/08 09:15:16;;;;;;;14.40;13.20;;;4.60;99.90;;;;;;5053420;28;20264;-77
2021/12/08 09:17:53;;;;;;;14.37;13.47;;;4.70;99.90;;;;;;5053103;28;20220;-77
2021/12/08 09:20:28;;;;;;;15.00;14.00;;;4.60;99.90;;;;;;5051999;28;20226;-77
2021/12/08 09:22:59;;;;;;;15.80;14.70;;;4.60;99.90;;;;;;5052203;28;20288;-77
2021/12/08 09:25:30;;;;;;;15.43;14.27;;;4.60;99.90;;;;;;5052697;28;20569;-77
2021/12/08 09:28:03;;;;;;;14.60;13.60;;;4.60;99.90;;;;;;5051866;28;20734;-77
2021/12/08 09:30:34;;;;;;;15.40;14.20;;;4.60;99.90;;;;;;5052031;28;20250;-77
2021/12/08 09:33:06;;;;;;;15.20;14.20;;;4.60;99.90;;;;;;5053199;28;20195;-77
2021/12/08 09:35:36;;;;;;;8.73;7.83;;;4.60;99.90;;;;;;5045625;28;20191;-77
2021/12/08 09:38:11;;;;;;;9.93;9.13;;;4.70;99.90;;;;;;5051334;28;20642;-77
2021/12/08 09:40:41;;;;;;;8.47;7.67;;;4.70;99.90;;;;;;5052876;28;20199;-77
2021/12/08 09:43:12;;;;;;;7.73;6.30;;;4.70;99.90;;;;;;5052861;28;20592;-78
2021/12/08 09:45:46;;;;;;;6.07;5.47;;;4.70;99.90;;;;;;5052853;28;20215;-77
2021/12/08 09:48:14;;;;;;;6.57;5.97;;;4.80;99.90;;;;;;5052623;28;20231;-78
2021/12/08 09:50:41;;;;;;;9.40;8.23;;;4.80;99.90;;;;;;5052804;28;20207;-77
2021/12/08 09:53:09;;;;;;;6.43;5.83;;;4.80;99.90;;;;;;5052633;28;20196;-77
2021/12/08 09:55:37;;;;;;;15.80;14.70;;;4.90;99.90;;;;;;5051580;28;20956;-77
2021/12/08 09:58:04;;;;;;;16.17;15.07;;;4.80;99.90;;;;;;5051040;28;20242;-77
2021/12/08 10:00:35;;;;;;;16.47;15.27;;;4.90;99.90;;;;;;5051345;28;20294;-77
2021/12/08 10:03:05;;;;;;;15.60;14.47;;;4.90;99.90;;;;;;5047491;28;20242;-77
2021/12/08 10:05:34;;;;;;;17.13;15.70;;;4.90;99.90;;;;;;5044964;28;20265;-77
2021/12/08 10:08:01;;;;;;;17.20;16.00;;;4.90;99.90;;;;;;5052077;28;20668;-77
2021/12/08 10:10:30;;;;;;;18.30;16.90;;;4.80;99.90;;;;;;5049063;28;20279;-77
2021/12/08 10:12:58;;;;;;;17.40;15.97;;;4.80;99.90;;;;;;5052367;28;20752;-77
2021/12/08 10:15:25;;;;;;;17.37;15.97;;;4.80;99.90;;;;;;5051039;28;20199;-77
2021/12/08 10:17:55;;;;;;;17.93;16.60;;;4.80;99.90;;;;;;5052021;28;20310;-77
2021/12/08 10:20:30;;;;;;;17.43;16.03;;;4.80;99.90;;;;;;5051999;28;20294;-77
2021/12/08 10:23:19;;;;;;;14.67;13.53;;;4.80;99.90;;;;;;5051265;28;20557;-77
2021/12/08 10:25:48;;;;;;;9.40;8.50;;;4.80;99.90;;;;;;5046563;28;20207;-77
2021/12/08 10:28:18;;;;;;;8.17;7.37;;;4.80;99.90;;;;;;5051727;28;20219;-77
2021/12/08 10:30:52;;;;;;;9.93;9.03;;;4.90;99.90;;;;;;5051984;28;20191;-77
2021/12/08 10:33:54;;;;;;;8.97;7.10;;;4.80;99.90;;;;;;5052162;28;20660;-79
2021/12/08 10:36:37;;;;;;;7.60;6.57;;;4.90;99.90;;;;;;5050760;28;20207;-76
2021/12/08 10:39:08;;;;;;;8.70;6.80;;;4.90;99.90;;;;;;5050962;28;20215;-77
2021/12/08 10:41:48;;;;;;;8.90;7.83;;;5.00;99.90;;;;;;5051963;28;20733;-77
2021/12/08 10:44:17;;;;;;;9.77;8.00;;;4.90;99.90;;;;;;5046978;28;20204;-77
2021/12/08 10:46:43;;;;;;;10.07;7.40;;;5.00;99.90;;;;;;5051322;28;20273;-77
2021/12/08 10:49:19;;;;;;;9.00;7.43;;;5.00;99.90;;;;;;5054489;28;20247;-77
2021/12/08 10:54:35;;;;;;;16.37;15.17;;;5.10;99.90;;;;;;5048128;28;20195;-77
2021/12/08 10:57:18;;;;;;;16.53;15.33;;;5.10;99.90;;;;;;5050236;28;20203;-77
2021/12/08 10:59:54;;;;;;;16.50;15.30;;;5.10;99.90;;;;;;5044644;28;20203;-77
2021/12/08 11:02:40;;;;;;;16.47;15.27;;;5.10;99.90;;;;;;5051479;28;20626;-77
2021/12/08 11:05:28;;;;;;;17.20;15.90;;;5.10;99.90;;;;;;5051195;28;20254;-77
2021/12/08 11:08:08;;;;;;;17.70;16.03;;;5.10;99.90;;;;;;5051276;28;20230;-77
2021/12/08 11:10:38;;;;;;;18.10;16.60;;;5.20;99.90;;;;;;5044166;28;20203;-77
2021/12/08 11:13:07;;;;;;;19.33;17.83;;;5.10;99.90;;;;;;5050245;28;20204;-77
2021/12/08 11:15:35;;;;;;;19.33;17.73;;;5.10;99.90;;;;;;5051972;28;20187;-77
2021/12/08 11:18:11;;;;;;;19.20;17.70;;;5.10;99.90;;;;;;5052971;28;20625;-77
2021/12/08 11:20:52;;;;;;;19.83;18.03;;;5.10;99.90;;;;;;5061597;28;20191;-77
2021/12/08 11:23:40;;;;;;;17.87;16.47;;;5.10;99.90;;;;;;5052615;28;20195;-77
2021/12/08 11:26:16;;;;;;;17.87;16.57;;;5.10;99.90;;;;;;5048867;28;20311;-77
2021/12/08 11:28:44;;;;;;;18.23;16.73;;;5.10;99.90;;;;;;5044029;28;20210;-77
2021/12/08 11:31:14;;;;;;;17.90;16.50;;;5.10;99.90;;;;;;5049876;28;20195;-77
2021/12/08 11:33:44;;;;;;;18.00;16.60;;;5.10;99.90;;;;;;5051472;28;20699;-77
2021/12/08 11:36:17;;;;;;;17.37;16.03;;;5.20;99.90;;;;;;5050008;28;20680;-77
2021/12/08 11:38:47;;;;;;;16.27;15.17;;;5.20;99.90;;;;;;5051137;28;20215;-77
2021/12/08 11:41:32;;;;;;;15.83;14.73;;;5.20;99.90;;;;;;5050110;28;20257;-77
2021/12/08 11:44:00;;;;;;;17.10;15.80;;;5.20;99.90;;;;;;5050004;28;20203;-77
2021/12/08 11:46:27;;;;;;;16.60;15.37;;;5.20;99.90;;;;;;5050802;28;20276;-77
2021/12/08 11:49:03;;;;;;;17.53;16.20;;;5.10;99.90;;;;;;5050546;28;20664;-77
2021/12/08 11:51:32;;;;;;;17.90;16.60;;;5.10;99.90;;;;;;5051998;28;20730;-77
2021/12/08 11:54:01;;;;;;;18.67;17.27;;;5.10;99.90;;;;;;5054924;28;20290;-77
2021/12/08 11:56:40;;;;;;;19.17;17.63;;;5.10;99.90;;;;;;5045302;28;20278;-77
2021/12/08 11:59:10;;;;;;;17.80;16.43;;;5.10;99.90;;;;;;5054936;28;20229;-77
2021/12/08 12:01:38;;;;;;;17.13;15.93;;;5.10;99.90;;;;;;5051360;28;20203;-77
2021/12/08 12:04:07;;;;;;;17.10;15.90;;;5.10;99.90;;;;;;5053540;28;20686;-77
2021/12/08 12:06:35;;;;;;;16.73;15.43;;;5.10;99.90;;;;;;5053132;28;20325;-77
2021/12/08 12:09:05;;;;;;;16.53;15.17;;;5.10;99.90;;;;;;5053204;28;20265;-77
2021/12/08 12:11:32;;;;;;;17.03;15.83;;;5.10;99.90;;;;;;5050751;28;20684;-77
2021/12/08 12:14:00;;;;;;;17.20;15.80;;;5.00;99.90;;;;;;5053325;28;20207;-77
2021/12/08 12:16:28;;;;;;;16.93;15.53;;;5.00;99.90;;;;;;5053103;28;20184;-78
2021/12/08 12:18:58;;;;;;;16.70;15.40;;;5.00;99.90;;;;;;5055175;28;20219;-77
2021/12/08 12:21:38;;;;;;;16.83;15.63;;;5.00;99.90;;;;;;5054326;28;20749;-77
2021/12/08 12:24:38;;;;;;;18.00;16.40;;;5.00;99.90;;;;;;5050722;28;20195;-77
2021/12/08 12:27:18;;;;;;;17.77;16.37;;;4.90;99.90;;;;;;5025473;28;20226;-78
2021/12/08 12:29:57;;;;;;;18.07;16.67;;;4.90;99.90;;;;;;5054656;28;20219;-77
2021/12/08 12:32:29;;;;;;;16.80;15.50;;;4.90;99.90;;;;;;5054315;28;20196;-77
2021/12/08 12:35:14;;;;;;;17.30;16.00;;;4.90;99.90;;;;;;5053072;28;20729;-77
2021/12/08 12:37:41;;;;;;;17.10;15.80;;;5.00;99.90;;;;;;5047134;28;20232;-77
2021/12/08 12:40:13;;;;;;;16.67;15.43;;;4.90;99.90;;;;;;5053890;28;20286;-77
2021/12/08 12:42:46;;;;;;;17.43;16.13;;;4.90;99.90;;;;;;5054131;28;20249;-77
2021/12/08 12:45:14;;;;;;;17.63;16.33;;;4.90;99.90;;;;;;5052620;28;20280;-77
2021/12/08 12:47:42;;;;;;;16.87;15.67;;;4.90;99.90;;;;;;5052237;28;20566;-77
2021/12/08 12:50:21;;;;;;;17.87;16.47;;;4.90;99.90;;;;;;5052584;28;20264;-77
2021/12/08 12:52:56;;;;;;;17.20;15.90;;;5.00;99.90;;;;;;5053939;28;20211;-77
2021/12/08 12:55:28;;;;;;;17.90;16.50;;;4.90;99.90;;;;;;5052796;28;20207;-78
2021/12/08 12:58:19;;;;;;;17.70;16.40;;;4.90;99.90;;;;;;5048890;28;20781;-77
2021/12/08 13:00:52;;;;;;;16.97;15.63;;;4.90;99.90;;;;;;5031980;28;20211;-77
2021/12/08 13:03:37;;;;;;;16.33;15.13;;;5.00;99.90;;;;;;5053872;28;20195;-77
2021/12/08 13:06:05;;;;;;;16.77;15.47;;;5.00;99.90;;;;;;5052196;28;20212;-77
2021/12/08 13:08:34;;;;;;;16.30;15.10;;;5.00;99.90;;;;;;5053204;28;20215;-77
2021/12/08 13:11:11;;;;;;;16.30;14.90;;;5.00;99.90;;;;;;5053594;28;20624;-77
2021/12/08 13:13:49;;;;;;;16.90;15.60;;;5.00;99.90;;;;;;5046767;28;20230;-77
2021/12/08 13:16:24;;;;;;;16.50;15.27;;;4.90;99.90;;;;;;5053274;28;20648;-77
2021/12/08 13:18:56;;;;;;;16.47;15.17;;;5.00;99.90;;;;;;5053442;28;20214;-77
2021/12/08 13:21:39;;;;;;;16.47;15.17;;;5.00;99.90;;;;;;5051972;28;20202;-77
2021/12/08 13:24:26;;;;;;;15.97;14.87;;;5.00;99.90;;;;;;5052218;28;20199;-77
2021/12/08 13:27:01;;;;;;;16.00;14.90;;;5.00;99.90;;;;;;5047151;28;20234;-77
2021/12/08 13:29:31;;;;;;;16.27;15.07;;;5.00;99.90;;;;;;5051531;28;20264;-77